Big Bear Station Historical Data
Daily Summary for February 15, 2019 Units:  English    Metric   Both
Next Day »
Daily Weekly Monthly Yearly Custom
  High: Low: Average:
Temperature: 35.2 °F 26.8 °F 30.6 °F
Dew Point: 30.3 °F 20.1 °F 28.1 °F
Humidity: 97% 75% 90%
Wind Speed: 9.9mph 0.0mph 3.3mph
Wind Gust: -999.0mph - -
Wind- - SW
Pressure: 23.42 in 23.32 in -
Precipitation: 0.01 in    
Historical Graphs
 
 
Tabular Data for February 15, 2019
Time Temperature Dew Point Pressure Wind Wind Speed Wind Gust Humidity Rainfall Rate (Hourly)
06:52 27.0 °F 20.1 °F 23.39 in NW 4.2 mph -999.0 mph 75% 0.00 in
07:07 27.0 °F 21.7 °F 23.39 in Calm   -999.0 mph 80% 0.00 in
07:23 27.1 °F 23.2 °F 23.40 in NW 2.7 mph -999.0 mph 85% 0.00 in
07:38 27.9 °F 25.1 °F 23.39 in NW 1.7 mph -999.0 mph 89% 0.00 in
07:53 28.6 °F 26.0 °F 23.40 in NW 1.7 mph -999.0 mph 90% 0.00 in
08:08 29.1 °F 26.5 °F 23.40 in NW 1.7 mph -999.0 mph 90% 0.00 in
08:23 29.5 °F 26.7 °F 23.40 in NW 1.7 mph -999.0 mph 89% 0.00 in
08:39 30.0 °F 27.2 °F 23.41 in NW 4.7 mph -999.0 mph 89% 0.00 in
08:54 30.0 °F 27.4 °F 23.42 in WNW 4.2 mph -999.0 mph 90% 0.00 in
09:10 30.2 °F 27.6 °F 23.41 in WNW 3.7 mph -999.0 mph 90% 0.00 in
09:25 29.8 °F 27.5 °F 23.41 in NW 6.8 mph -999.0 mph 91% 0.00 in
09:41 30.2 °F 27.4 °F 23.42 in NW 2.7 mph -999.0 mph 89% 0.00 in
09:56 31.6 °F 27.9 °F 23.42 in NNE 5.3 mph -999.0 mph 86% 0.00 in
10:11 33.3 °F 29.0 °F 23.42 in WNW 1.1 mph -999.0 mph 84% 0.00 in
10:26 33.1 °F 28.8 °F 23.42 in West 1.7 mph -999.0 mph 84% 0.00 in
10:42 33.3 °F 29.6 °F 23.41 in NNE 4.2 mph -999.0 mph 86% 0.00 in
10:57 33.4 °F 30.2 °F 23.42 in NW 4.7 mph -999.0 mph 88% 0.00 in
11:12 34.2 °F 29.9 °F 23.42 in NW 2.7 mph -999.0 mph 84% 0.00 in
11:27 35.2 °F 30.3 °F 23.42 in NW 4.7 mph -999.0 mph 82% 0.00 in
11:42 33.6 °F 29.0 °F 23.42 in SW 3.2 mph -999.0 mph 83% 0.00 in
11:58 34.5 °F 29.9 °F 23.42 in WNW 2.7 mph -999.0 mph 83% 0.00 in
12:13 34.5 °F 29.9 °F 23.42 in WNW 5.8 mph -999.0 mph 83% 0.00 in
12:28 33.6 °F 29.6 °F 23.41 in WSW 2.7 mph -999.0 mph 85% 0.00 in
12:44 33.4 °F 29.4 °F 23.42 in ENE 1.1 mph -999.0 mph 85% 0.00 in
12:59 33.1 °F 29.1 °F 23.41 in NNW 2.7 mph -999.0 mph 85% 0.00 in
13:14 34.2 °F 29.9 °F 23.40 in WSW 4.7 mph -999.0 mph 84% 0.00 in
13:30 33.3 °F 29.9 °F 23.40 in WSW 2.7 mph -999.0 mph 87% 0.00 in
13:46 33.1 °F 29.7 °F 23.40 in NW 3.7 mph -999.0 mph 87% 0.00 in
14:01 32.0 °F 29.1 °F 23.40 in WNW 1.7 mph -999.0 mph 89% 0.00 in
14:16 31.6 °F 29.3 °F 23.39 in NE 4.7 mph -999.0 mph 91% 0.00 in
14:31 33.3 °F 29.6 °F 23.39 in Calm   -999.0 mph 86% 0.00 in
14:46 33.6 °F 28.7 °F 23.38 in North 4.7 mph -999.0 mph 82% 0.00 in
15:02 32.7 °F 29.0 °F 23.39 in WNW 4.2 mph -999.0 mph 86% 0.00 in
15:17 32.4 °F 29.0 °F 23.38 in ESE 1.1 mph -999.0 mph 87% 0.00 in
15:35 32.4 °F 29.0 °F 23.38 in NNE 2.7 mph -999.0 mph 87% 0.00 in
15:50 32.5 °F 29.1 °F 23.38 in NE 1.7 mph -999.0 mph 87% 0.00 in
16:05 32.7 °F 29.0 °F 23.37 in WNW 6.8 mph -999.0 mph 86% 0.00 in
16:21 31.6 °F 28.7 °F 23.37 in ESE 2.7 mph -999.0 mph 89% 0.00 in
16:38 30.6 °F 28.3 °F 23.37 in Calm   -999.0 mph 91% 0.00 in
16:53 29.7 °F 28.4 °F 23.37 in ENE 3.2 mph -999.0 mph 95% 0.00 in
17:08 29.7 °F 28.4 °F 23.36 in SW 3.2 mph -999.0 mph 95% 0.00 in
17:24 29.8 °F 28.5 °F 23.36 in NNW 1.7 mph -999.0 mph 95% 0.00 in
17:40 29.7 °F 28.4 °F 23.35 in Calm   -999.0 mph 95% 0.00 in
17:55 29.7 °F 28.4 °F 23.36 in NW 2.7 mph -999.0 mph 95% 0.00 in
18:10 29.7 °F 28.4 °F 23.36 in ESE 5.3 mph -999.0 mph 95% 0.00 in
18:25 29.3 °F 28.6 °F 23.35 in East 2.7 mph -999.0 mph 97% 0.00 in
18:40 29.5 °F 28.8 °F 23.35 in East 1.1 mph -999.0 mph 97% 0.00 in
18:56 29.7 °F 29.0 °F 23.35 in Calm   -999.0 mph 97% 0.00 in
19:11 29.7 °F 28.7 °F 23.35 in SE 2.2 mph -999.0 mph 96% 0.00 in
19:26 29.7 °F 28.7 °F 23.35 in ESE 3.7 mph -999.0 mph 96% 0.00 in
19:41 29.5 °F 28.5 °F 23.33 in NW 1.7 mph -999.0 mph 96% 0.00 in
19:57 29.5 °F 28.5 °F 23.33 in Calm   -999.0 mph 96% 0.00 in
20:12 29.5 °F 28.5 °F 23.32 in Calm   -999.0 mph 96% 0.00 in
20:28 29.5 °F 28.5 °F 23.32 in South 2.7 mph -999.0 mph 96% 0.00 in
20:43 29.3 °F 28.3 °F 23.32 in SSW 3.2 mph -999.0 mph 96% 0.00 in
20:58 29.5 °F 28.5 °F 23.32 in NE 2.7 mph -999.0 mph 96% 0.00 in
21:13 29.5 °F 28.5 °F 23.32 in ESE 2.7 mph -999.0 mph 96% 0.00 in
21:28 29.7 °F 28.7 °F 23.34 in NE 4.7 mph -999.0 mph 96% 0.00 in
21:44 29.3 °F 28.3 °F 23.34 in South 5.8 mph -999.0 mph 96% 0.00 in
21:59 28.9 °F 27.9 °F 23.34 in NNW 7.8 mph -999.0 mph 96% 0.00 in
22:14 28.8 °F 27.5 °F 23.34 in SE 4.2 mph -999.0 mph 95% 0.00 in
22:30 28.4 °F 27.4 °F 23.34 in SSW 7.8 mph -999.0 mph 96% 0.00 in
22:45 27.7 °F 26.2 °F 23.34 in WNW 9.9 mph -999.0 mph 94% 0.00 in
23:00 27.1 °F 26.1 °F 23.35 in NNW 8.3 mph -999.0 mph 96% 0.00 in
23:16 26.8 °F 25.6 °F 23.35 in West 6.3 mph -999.0 mph 95% 0.00 in
23:31 27.0 °F 26.0 °F 23.34 in SSE 2.7 mph -999.0 mph 96% 0.00 in
23:46 27.0 °F 26.0 °F 23.34 in WSW 4.7 mph -999.0 mph 96% 0.00 in
Big Bear CA Weather